Time;durP1;ratioP1;P1;durP2;ratioP2;P2;SDS_P1;SDS_P2;PMS_P1;PMS_P2;Temp;Humidity;BMP_temperature;BMP_pressure;BME280_temperature;BME280_humidity;BME280_pressure;Samples;Min_cycle;Max_cycle;Signal;HPM_P1;HPM_P2
2022/10/09 00:01:16;;;;;;;11.57;7.43;;;12.10;99.90;;;;;;4978023;28;20549;-82
2022/10/09 00:03:45;;;;;;;9.47;7.50;;;12.00;99.90;;;;;;4979204;28;22577;-81
2022/10/09 00:06:15;;;;;;;8.40;6.93;;;11.90;99.90;;;;;;4978392;28;20486;-82
2022/10/09 00:08:42;;;;;;;12.50;7.73;;;11.90;99.90;;;;;;4978354;28;20533;-82
2022/10/09 00:11:15;;;;;;;12.10;7.80;;;11.90;99.90;;;;;;4977696;28;21093;-80
2022/10/09 00:13:43;;;;;;;10.10;7.50;;;11.70;99.90;;;;;;4977237;28;20536;-80
2022/10/09 00:16:12;;;;;;;10.03;6.67;;;11.80;99.90;;;;;;4979978;28;21588;-81
2022/10/09 00:18:40;;;;;;;8.83;7.50;;;11.70;99.90;;;;;;4994339;28;20451;-82
2022/10/09 00:21:24;;;;;;;9.73;6.57;;;11.70;99.90;;;;;;5001647;28;20458;-82
2022/10/09 00:23:52;;;;;;;9.80;6.87;;;11.80;99.90;;;;;;5005011;28;20458;-81
2022/10/09 00:26:19;;;;;;;7.00;6.40;;;11.90;99.90;;;;;;5003965;28;20501;-80
2022/10/09 00:28:47;;;;;;;7.30;6.33;;;12.00;99.90;;;;;;5003500;28;20576;-82
2022/10/09 00:31:14;;;;;;;10.80;6.00;;;11.90;99.90;;;;;;4994365;28;20459;-82
2022/10/09 00:33:41;;;;;;;8.87;6.23;;;11.70;99.90;;;;;;4984063;28;21636;-82
2022/10/09 00:36:12;;;;;;;8.40;6.33;;;11.70;99.90;;;;;;4978646;28;20574;-83
2022/10/09 00:38:39;;;;;;;11.33;5.93;;;11.60;99.90;;;;;;4977543;28;20517;-82
2022/10/09 00:41:06;;;;;;;6.57;5.90;;;11.60;99.90;;;;;;4976995;28;20518;-81
2022/10/09 00:43:45;;;;;;;6.57;5.50;;;11.60;99.90;;;;;;4978557;28;20467;-82
2022/10/09 00:46:37;;;;;;;7.90;6.90;;;11.60;99.90;;;;;;4977680;28;20944;-82
2022/10/09 00:49:24;;;;;;;7.70;5.90;;;11.60;99.90;;;;;;4981955;28;20483;-81
2022/10/09 00:51:52;;;;;;;8.43;6.03;;;11.50;99.90;;;;;;4986348;28;20521;-81
2022/10/09 00:54:22;;;;;;;6.03;5.33;;;11.20;99.90;;;;;;4984654;28;20482;-80
2022/10/09 00:56:50;;;;;;;5.70;5.13;;;11.20;99.90;;;;;;4984160;28;21174;-81
2022/10/09 00:59:17;;;;;;;4.80;4.23;;;11.00;99.90;;;;;;4984767;28;21208;-80
2022/10/09 01:01:44;;;;;;;6.03;5.40;;;10.80;99.90;;;;;;4991410;28;21161;-82
2022/10/09 01:04:11;;;;;;;7.80;5.30;;;10.80;99.90;;;;;;4986949;28;20478;-81
2022/10/09 01:06:45;;;;;;;6.43;5.33;;;10.60;99.90;;;;;;4978810;28;20482;-82
2022/10/09 01:09:24;;;;;;;7.67;5.37;;;10.60;99.90;;;;;;4980058;28;20459;-82
2022/10/09 01:12:05;;;;;;;6.03;5.17;;;10.50;99.90;;;;;;4978970;28;20455;-83
2022/10/09 01:14:38;;;;;;;5.70;4.57;;;10.50;99.90;;;;;;4979085;28;20553;-83
2022/10/09 01:17:10;;;;;;;8.27;4.67;;;10.70;99.90;;;;;;4977363;28;20455;-81
2022/10/09 01:19:55;;;;;;;5.60;5.03;;;10.70;99.90;;;;;;4981897;28;21979;-81
2022/10/09 01:22:40;;;;;;;5.67;5.17;;;10.80;99.90;;;;;;4982885;28;21042;-83
2022/10/09 01:25:14;;;;;;;9.90;5.47;;;11.00;99.90;;;;;;4983363;28;20479;-82
2022/10/09 01:27:51;;;;;;;5.13;4.63;;;10.80;99.90;;;;;;4981528;28;20447;-82
2022/10/09 01:30:18;;;;;;;5.70;5.10;;;10.70;99.90;;;;;;4982651;28;20490;-82
2022/10/09 01:32:49;;;;;;;8.13;5.20;;;10.70;99.90;;;;;;4981418;28;20561;-81
2022/10/09 01:35:17;;;;;;;5.73;5.07;;;10.70;99.90;;;;;;4983864;28;20640;-82
2022/10/09 01:37:45;;;;;;;7.00;5.17;;;10.50;99.90;;;;;;4993455;28;20502;-83
2022/10/09 01:40:15;;;;;;;6.13;4.57;;;10.30;99.90;;;;;;4984674;28;20494;-82
2022/10/09 01:42:42;;;;;;;6.30;4.97;;;10.30;99.90;;;;;;4983242;28;20586;-82
2022/10/09 01:45:09;;;;;;;5.90;5.03;;;10.30;99.90;;;;;;4985554;28;20483;-82
2022/10/09 01:47:36;;;;;;;7.63;5.10;;;10.20;99.90;;;;;;4984325;28;20490;-83
2022/10/09 01:50:26;;;;;;;5.43;4.93;;;10.00;99.90;;;;;;4983560;28;20941;-83
2022/10/09 01:52:58;;;;;;;6.53;4.50;;;10.00;99.90;;;;;;4986056;28;20521;-84
2022/10/09 01:55:28;;;;;;;8.17;5.70;;;10.10;99.90;;;;;;4986326;28;20626;-80
2022/10/09 01:58:07;;;;;;;5.93;5.33;;;10.30;99.90;;;;;;4981355;28;20531;-85
2022/10/09 02:00:40;;;;;;;6.73;4.90;;;10.30;99.90;;;;;;4985961;28;20554;-80
2022/10/09 02:03:10;;;;;;;6.90;5.10;;;10.30;99.90;;;;;;4986478;28;20463;-83
2022/10/09 02:05:39;;;;;;;7.00;5.30;;;10.30;99.90;;;;;;4995397;28;20494;-81
2022/10/09 02:08:08;;;;;;;8.53;5.33;;;10.50;99.90;;;;;;4994370;28;20448;-80
2022/10/09 02:10:36;;;;;;;5.50;5.00;;;10.50;99.90;;;;;;4993991;28;20451;-82
2022/10/09 02:13:04;;;;;;;6.53;4.90;;;10.60;99.90;;;;;;4996753;28;20498;-82
2022/10/09 02:15:37;;;;;;;6.30;5.53;;;10.40;99.90;;;;;;4994103;28;20502;-80
2022/10/09 02:18:10;;;;;;;5.30;4.80;;;10.40;99.90;;;;;;4988483;28;20475;-82
2022/10/09 02:20:43;;;;;;;6.87;5.07;;;10.30;99.90;;;;;;4982195;28;20455;-80
2022/10/09 02:23:12;;;;;;;5.37;4.60;;;10.20;99.90;;;;;;4985242;28;20451;-83
2022/10/09 02:25:39;;;;;;;9.10;5.87;;;10.20;99.90;;;;;;4982550;28;20478;-82
2022/10/09 02:28:06;;;;;;;6.53;5.27;;;10.30;99.90;;;;;;4980314;28;20477;-82
2022/10/09 02:30:47;;;;;;;6.60;5.30;;;10.30;99.90;;;;;;4982885;28;20640;-81
2022/10/09 02:33:14;;;;;;;7.70;5.10;;;10.30;99.90;;;;;;4990680;28;20569;-82
2022/10/09 02:35:41;;;;;;;5.80;4.97;;;10.20;99.90;;;;;;4983486;28;20486;-83
2022/10/09 02:38:07;;;;;;;6.53;5.47;;;10.30;99.90;;;;;;4984216;28;20466;-81
2022/10/09 02:40:34;;;;;;;6.30;4.90;;;10.30;99.90;;;;;;4983158;28;20459;-82
2022/10/09 02:43:01;;;;;;;7.77;5.40;;;10.40;99.90;;;;;;4996867;28;20478;-83
2022/10/09 02:45:27;;;;;;;6.40;4.80;;;10.40;99.90;;;;;;5005929;28;20478;-81
2022/10/09 02:47:54;;;;;;;5.60;5.00;;;10.40;99.90;;;;;;5007763;28;20502;-80
2022/10/09 02:50:20;;;;;;;5.97;5.40;;;10.30;99.90;;;;;;5001463;28;20463;-82
2022/10/09 02:52:47;;;;;;;5.60;5.00;;;10.20;99.90;;;;;;4988195;28;20447;-83
2022/10/09 02:55:14;;;;;;;7.40;6.23;;;10.00;99.90;;;;;;4985093;28;21706;-83
2022/10/09 02:57:40;;;;;;;6.00;5.30;;;9.80;99.90;;;;;;4986107;28;20498;-82
2022/10/09 03:00:08;;;;;;;5.70;4.90;;;9.70;99.90;;;;;;4984711;28;20498;-83
2022/10/09 03:02:34;;;;;;;5.57;5.07;;;9.80;99.90;;;;;;4982972;28;20812;-82
2022/10/09 03:05:01;;;;;;;7.50;6.03;;;9.80;99.90;;;;;;4986100;28;20506;-81
2022/10/09 03:07:28;;;;;;;6.10;5.60;;;9.70;99.90;;;;;;4986737;28;20506;-80
2022/10/09 03:09:56;;;;;;;8.47;5.83;;;9.80;99.90;;;;;;4988696;28;20491;-80
2022/10/09 03:12:22;;;;;;;8.73;6.17;;;9.70;99.90;;;;;;4984738;28;20491;-81
2022/10/09 03:14:49;;;;;;;8.13;5.93;;;9.60;99.90;;;;;;4982265;28;20748;-82
2022/10/09 03:17:15;;;;;;;10.30;6.90;;;9.50;99.90;;;;;;4982303;28;20459;-82
2022/10/09 03:19:42;;;;;;;6.70;5.83;;;9.50;99.90;;;;;;4981329;28;20559;-82
2022/10/09 03:22:09;;;;;;;10.37;6.03;;;9.40;99.90;;;;;;4981096;28;20451;-82
2022/10/09 03:24:35;;;;;;;7.73;5.97;;;9.50;99.90;;;;;;4980535;28;20490;-82
2022/10/09 03:27:02;;;;;;;8.80;6.53;;;9.50;99.90;;;;;;4982415;28;20486;-82
2022/10/09 03:29:28;;;;;;;9.90;6.20;;;9.60;99.90;;;;;;4981043;28;20509;-83
2022/10/09 03:31:55;;;;;;;6.70;5.63;;;9.50;99.90;;;;;;4989998;28;20455;-81
2022/10/09 03:34:22;;;;;;;6.87;5.87;;;9.40;99.90;;;;;;4993174;28;20479;-81
2022/10/09 03:36:49;;;;;;;10.03;6.03;;;9.50;99.90;;;;;;4992583;28;20550;-82
2022/10/09 03:39:15;;;;;;;7.83;5.83;;;9.40;99.90;;;;;;4992786;28;20466;-80
2022/10/09 03:41:42;;;;;;;6.77;5.30;;;9.30;99.90;;;;;;4992567;28;20479;-81
2022/10/09 03:44:08;;;;;;;6.00;5.50;;;9.40;99.90;;;;;;4992151;28;20455;-82
2022/10/09 03:46:35;;;;;;;8.90;5.37;;;9.30;99.90;;;;;;4987219;28;20518;-81
2022/10/09 03:49:02;;;;;;;6.30;5.53;;;9.30;99.90;;;;;;4980251;28;20529;-82
2022/10/09 03:51:28;;;;;;;6.30;4.60;;;9.40;99.90;;;;;;4981795;28;20876;-82
2022/10/09 03:53:55;;;;;;;6.07;5.17;;;9.40;99.90;;;;;;4978615;28;20514;-82
2022/10/09 03:56:21;;;;;;;9.63;5.93;;;9.50;99.90;;;;;;4979762;28;20470;-82
2022/10/09 03:58:48;;;;;;;5.33;4.83;;;9.40;99.90;;;;;;4980450;28;20455;-82
2022/10/09 04:01:15;;;;;;;5.77;5.27;;;9.30;99.90;;;;;;4979599;28;20454;-82
2022/10/09 04:03:41;;;;;;;5.80;4.93;;;9.20;99.90;;;;;;4978762;28;20459;-82
2022/10/09 04:06:08;;;;;;;5.80;5.10;;;9.20;99.90;;;;;;4981315;28;20524;-82
2022/10/09 04:08:35;;;;;;;6.20;5.60;;;9.30;99.90;;;;;;4997792;28;20486;-81
2022/10/09 04:11:02;;;;;;;5.57;5.07;;;9.20;99.90;;;;;;4996295;28;20463;-81
2022/10/09 04:13:29;;;;;;;6.50;5.90;;;9.40;99.90;;;;;;4996918;28;20518;-81
2022/10/09 04:15:56;;;;;;;6.10;4.73;;;9.30;99.90;;;;;;4996350;28;20477;-79
2022/10/09 04:18:23;;;;;;;6.33;5.07;;;9.20;99.90;;;;;;4994523;28;20543;-81
2022/10/09 04:20:55;;;;;;;7.60;4.90;;;9.30;99.90;;;;;;4993539;28;20482;-82
2022/10/09 04:23:24;;;;;;;5.93;5.33;;;9.20;99.90;;;;;;4983922;28;20455;-81
2022/10/09 04:25:57;;;;;;;6.83;5.30;;;9.00;99.90;;;;;;4993557;28;20541;-82
2022/10/09 04:28:27;;;;;;;8.57;5.40;;;9.00;99.90;;;;;;4992717;28;20451;-82
2022/10/09 04:30:56;;;;;;;6.10;5.50;;;9.10;99.90;;;;;;4979950;28;20474;-81
2022/10/09 04:33:23;;;;;;;6.87;5.43;;;9.00;99.90;;;;;;4979226;28;22356;-82
2022/10/09 04:35:52;;;;;;;5.57;5.07;;;9.10;99.90;;;;;;4980285;28;20494;-81
2022/10/09 04:38:20;;;;;;;7.93;5.13;;;9.20;99.90;;;;;;4978168;28;20491;-81
2022/10/09 04:41:02;;;;;;;8.50;5.83;;;9.10;99.90;;;;;;4976979;28;20491;-82
2022/10/09 04:43:29;;;;;;;7.50;6.30;;;9.00;99.90;;;;;;4976889;28;20467;-82
2022/10/09 04:45:56;;;;;;;5.83;5.27;;;9.00;99.90;;;;;;4982060;28;20510;-82
2022/10/09 04:48:23;;;;;;;6.30;5.20;;;9.00;99.90;;;;;;4978277;28;20478;-82
2022/10/09 04:50:50;;;;;;;9.10;5.67;;;9.10;99.90;;;;;;4979577;28;20513;-83
2022/10/09 04:53:16;;;;;;;6.70;5.30;;;9.20;99.90;;;;;;4982009;28;20498;-83
2022/10/09 04:55:43;;;;;;;7.07;5.30;;;9.20;99.90;;;;;;4983215;28;20479;-82
2022/10/09 04:58:11;;;;;;;8.63;4.83;;;9.10;99.90;;;;;;4982289;28;20466;-82
2022/10/09 05:00:44;;;;;;;7.00;5.10;;;9.20;99.90;;;;;;4983208;28;20463;-82
2022/10/09 05:03:11;;;;;;;9.03;5.57;;;9.00;99.90;;;;;;4981527;28;20904;-81
2022/10/09 05:05:38;;;;;;;6.30;5.70;;;8.90;99.90;;;;;;4980236;28;21099;-82
2022/10/09 05:08:05;;;;;;;5.77;4.60;;;9.00;99.90;;;;;;4979077;28;20459;-82
2022/10/09 05:10:32;;;;;;;5.70;5.10;;;9.00;99.90;;;;;;4981081;28;20505;-81
2022/10/09 05:12:59;;;;;;;5.67;5.17;;;9.00;99.90;;;;;;4980745;28;20491;-81
2022/10/09 05:15:26;;;;;;;7.70;5.50;;;8.90;99.90;;;;;;4979853;28;20549;-84
2022/10/09 05:17:52;;;;;;;7.03;6.43;;;9.00;99.90;;;;;;4979638;28;22335;-82
2022/10/09 05:20:19;;;;;;;6.43;5.63;;;9.10;99.90;;;;;;4979485;28;20509;-80
2022/10/09 05:22:46;;;;;;;10.20;5.13;;;9.00;99.90;;;;;;4979924;28;21808;-83
2022/10/09 05:25:14;;;;;;;9.40;5.97;;;9.00;99.90;;;;;;4981237;28;20495;-81
2022/10/09 05:27:40;;;;;;;6.53;4.77;;;9.00;99.90;;;;;;4980284;28;20938;-81
2022/10/09 05:30:08;;;;;;;6.80;6.03;;;8.90;99.90;;;;;;4979928;28;20537;-82
2022/10/09 05:32:34;;;;;;;5.83;5.23;;;8.80;99.90;;;;;;4981514;28;20458;-80
2022/10/09 05:35:03;;;;;;;11.10;5.07;;;8.70;99.90;;;;;;4978134;28;20617;-83
2022/10/09 05:37:29;;;;;;;10.23;6.20;;;8.70;99.90;;;;;;4982651;28;20466;-83
2022/10/09 05:39:56;;;;;;;7.20;5.43;;;8.80;99.90;;;;;;4985984;28;20482;-80
2022/10/09 05:42:23;;;;;;;9.17;5.20;;;8.70;99.90;;;;;;4980039;28;20451;-81
2022/10/09 05:44:49;;;;;;;8.10;5.70;;;8.90;99.90;;;;;;4981270;28;20549;-79
2022/10/09 05:47:18;;;;;;;5.97;5.37;;;8.80;99.90;;;;;;4979889;28;20456;-82
2022/10/09 05:49:45;;;;;;;7.33;5.60;;;8.80;99.90;;;;;;4978909;28;20482;-81
2022/10/09 05:52:12;;;;;;;5.90;5.30;;;8.80;99.90;;;;;;4980197;28;21087;-81
2022/10/09 05:54:40;;;;;;;6.47;5.00;;;8.90;99.90;;;;;;4993424;28;20495;-82
2022/10/09 05:57:08;;;;;;;6.10;5.33;;;8.90;99.90;;;;;;4980101;28;20447;-82
2022/10/09 05:59:35;;;;;;;9.33;5.57;;;8.90;99.90;;;;;;4979571;28;20475;-81
2022/10/09 06:02:01;;;;;;;6.07;5.00;;;9.00;99.90;;;;;;4980520;28;20455;-80
2022/10/09 06:04:28;;;;;;;6.40;5.47;;;8.90;99.90;;;;;;4980276;28;20515;-80
2022/10/09 06:06:55;;;;;;;8.40;5.23;;;8.90;99.90;;;;;;4979093;28;20467;-82
2022/10/09 06:09:23;;;;;;;6.77;5.80;;;8.90;99.90;;;;;;4981684;28;20459;-82
2022/10/09 06:11:51;;;;;;;6.47;4.80;;;8.80;99.90;;;;;;4981847;28;20875;-82
2022/10/09 06:14:20;;;;;;;10.67;4.90;;;8.80;99.90;;;;;;4982672;28;20498;-82
2022/10/09 06:16:47;;;;;;;6.63;5.67;;;8.80;99.90;;;;;;4980388;28;20495;-81
2022/10/09 06:19:16;;;;;;;5.90;5.20;;;8.80;99.90;;;;;;4979476;28;20505;-80
2022/10/09 06:21:43;;;;;;;6.90;5.60;;;8.80;99.90;;;;;;4981692;28;20531;-82
2022/10/09 06:24:20;;;;;;;5.43;4.93;;;8.80;99.90;;;;;;4980164;28;20435;-82
2022/10/09 06:26:51;;;;;;;7.80;5.73;;;8.70;99.90;;;;;;4980684;28;20462;-82
2022/10/09 06:29:17;;;;;;;8.30;5.63;;;8.60;99.90;;;;;;4979097;28;20462;-81
2022/10/09 06:31:44;;;;;;;5.00;4.50;;;8.70;99.90;;;;;;4977495;28;20467;-81
2022/10/09 06:34:11;;;;;;;5.63;5.13;;;8.80;99.90;;;;;;4976840;28;20541;-81
2022/10/09 06:36:37;;;;;;;5.70;4.67;;;8.80;99.90;;;;;;4979297;28;20984;-81
2022/10/09 06:39:06;;;;;;;5.27;4.60;;;8.90;99.90;;;;;;4976415;28;20887;-81
2022/10/09 06:41:33;;;;;;;8.17;5.30;;;9.00;99.90;;;;;;4990485;28;20447;-81
2022/10/09 06:44:05;;;;;;;6.17;4.80;;;9.00;99.90;;;;;;4977861;28;20436;-81
2022/10/09 06:46:43;;;;;;;5.80;5.10;;;9.00;99.90;;;;;;4977706;28;20989;-82
2022/10/09 06:49:10;;;;;;;5.60;5.07;;;9.00;99.90;;;;;;4975821;28;20486;-82
2022/10/09 06:51:37;;;;;;;6.00;4.90;;;9.20;99.90;;;;;;4979329;28;20499;-82
2022/10/09 06:54:09;;;;;;;8.57;5.07;;;9.40;99.90;;;;;;4983538;28;20533;-82
2022/10/09 06:56:36;;;;;;;5.10;4.60;;;9.40;99.90;;;;;;4983110;28;20467;-83
2022/10/09 06:59:05;;;;;;;5.87;4.60;;;9.40;99.90;;;;;;4994469;28;20458;-81
2022/10/09 07:01:32;;;;;;;8.33;5.30;;;9.30;99.90;;;;;;4994560;28;20509;-83
2022/10/09 07:04:05;;;;;;;7.80;4.90;;;9.30;99.90;;;;;;4984748;28;20448;-83
2022/10/09 07:06:36;;;;;;;6.00;5.23;;;9.70;99.90;;;;;;4986026;28;20479;-81
2022/10/09 07:09:06;;;;;;;5.53;4.87;;;11.90;99.90;;;;;;4985948;28;20470;-84
2022/10/09 07:11:39;;;;;;;4.57;4.00;;;14.10;96.50;;;;;;4987240;28;20951;-83
2022/10/09 07:14:08;;;;;;;7.17;4.73;;;15.70;91.90;;;;;;4992290;28;20470;-83
2022/10/09 07:16:40;;;;;;;7.53;4.60;;;16.90;85.40;;;;;;5006365;28;20471;-83
2022/10/09 07:19:09;;;;;;;6.53;4.37;;;17.20;80.70;;;;;;5007533;28;20473;-83
2022/10/09 07:21:39;;;;;;;4.60;4.17;;;17.40;79.60;;;;;;5007831;28;20469;-81
2022/10/09 07:24:06;;;;;;;4.20;3.80;;;17.70;77.40;;;;;;4998411;28;20454;-82
2022/10/09 07:26:35;;;;;;;5.37;4.10;;;18.00;75.80;;;;;;4985508;28;20768;-81
2022/10/09 07:29:03;;;;;;;5.10;4.30;;;18.20;74.80;;;;;;4990511;28;20451;-82
2022/10/09 07:31:29;;;;;;;6.97;4.07;;;18.70;73.10;;;;;;5001663;28;20464;-81
2022/10/09 07:33:56;;;;;;;4.43;3.93;;;18.30;69.80;;;;;;5014503;28;20431;-80
2022/10/09 07:36:23;;;;;;;4.87;4.37;;;15.80;75.80;;;;;;4999525;28;20541;-82
2022/10/09 07:38:52;;;;;;;5.10;4.70;;;13.90;85.10;;;;;;4999630;28;20483;-80
2022/10/09 07:41:20;;;;;;;6.83;5.80;;;12.80;91.10;;;;;;4981328;28;20436;-82
2022/10/09 07:43:47;;;;;;;5.70;4.60;;;12.10;93.70;;;;;;4979403;28;20455;-82
2022/10/09 07:46:16;;;;;;;6.73;4.87;;;12.50;94.90;;;;;;4980105;28;20462;-81
2022/10/09 07:48:43;;;;;;;7.53;5.03;;;12.70;94.10;;;;;;4980931;28;20470;-82
2022/10/09 07:51:12;;;;;;;5.27;4.87;;;12.50;94.00;;;;;;4982171;28;20459;-82
2022/10/09 07:53:39;;;;;;;8.20;5.67;;;11.80;95.00;;;;;;4980659;28;20517;-82
2022/10/09 07:56:06;;;;;;;7.20;6.60;;;11.30;96.00;;;;;;4994992;28;20514;-82
2022/10/09 07:58:33;;;;;;;9.10;6.87;;;11.10;97.10;;;;;;4980857;28;20451;-82
2022/10/09 08:01:06;;;;;;;9.03;6.73;;;11.00;97.70;;;;;;4981861;28;20483;-80
2022/10/09 08:03:34;;;;;;;9.57;6.73;;;11.00;98.20;;;;;;4980899;28;20465;-82
2022/10/09 08:06:02;;;;;;;9.57;6.93;;;10.90;97.90;;;;;;4987860;28;20494;-84
2022/10/09 08:08:29;;;;;;;8.00;5.97;;;10.90;98.20;;;;;;5029730;22;20537;-84
2022/10/09 08:10:55;;;;;;;8.17;7.20;;;11.00;98.40;;;;;;5003060;28;20431;-84
2022/10/09 08:13:23;;;;;;;8.20;7.43;;;11.00;98.30;;;;;;5005206;28;20443;-81
2022/10/09 08:15:50;;;;;;;10.67;7.60;;;11.00;98.30;;;;;;4995927;28;20574;-83
2022/10/09 08:18:17;;;;;;;8.80;7.70;;;11.10;98.60;;;;;;4988528;28;20467;-82
2022/10/09 08:20:43;;;;;;;8.63;6.97;;;11.20;98.40;;;;;;4981723;28;20595;-82
2022/10/09 08:23:10;;;;;;;10.20;6.70;;;11.30;98.20;;;;;;4972398;28;20808;-82
2022/10/09 08:25:37;;;;;;;10.87;6.40;;;11.30;98.30;;;;;;4980163;28;20982;-82
2022/10/09 08:28:04;;;;;;;6.70;5.07;;;11.40;98.60;;;;;;4973750;28;20542;-80
2022/10/09 08:30:30;;;;;;;5.97;5.00;;;11.40;98.60;;;;;;4972693;28;20460;-83
2022/10/09 08:32:57;;;;;;;7.00;4.97;;;11.40;98.80;;;;;;4973123;28;22209;-82
2022/10/09 08:35:24;;;;;;;5.77;5.03;;;11.50;98.60;;;;;;4973879;28;20487;-82
2022/10/09 08:37:50;;;;;;;6.03;5.53;;;11.50;98.50;;;;;;4976333;28;20456;-81
2022/10/09 08:40:31;;;;;;;10.03;5.50;;;11.60;98.50;;;;;;4970045;28;20807;-81
2022/10/09 08:43:06;;;;;;;8.80;6.20;;;11.60;98.40;;;;;;4978126;28;20447;-80
2022/10/09 08:45:34;;;;;;;7.93;7.03;;;11.70;98.50;;;;;;4975241;28;20545;-82
2022/10/09 08:48:06;;;;;;;7.57;6.83;;;11.60;98.60;;;;;;4971367;28;20510;-83
2022/10/09 08:50:37;;;;;;;8.43;6.37;;;11.60;98.50;;;;;;4970870;28;20498;-83
2022/10/09 08:53:25;;;;;;;8.97;6.20;;;11.80;98.90;;;;;;4970998;28;20448;-82
2022/10/09 08:55:59;;;;;;;14.50;7.90;;;12.10;98.30;;;;;;4973610;28;20514;-81
2022/10/09 08:58:33;;;;;;;10.83;6.73;;;12.30;98.00;;;;;;4972049;28;20500;-82
2022/10/09 09:01:14;;;;;;;9.93;7.43;;;12.40;97.50;;;;;;4974984;28;20490;-83
2022/10/09 09:04:18;;;;;;;8.13;7.03;;;12.50;97.30;;;;;;4987893;28;20455;-82
2022/10/09 09:07:18;;;;;;;7.93;7.17;;;12.60;97.20;;;;;;4970104;28;20448;-81
2022/10/09 09:09:47;;;;;;;8.53;6.53;;;12.70;96.80;;;;;;4972713;28;20459;-83
2022/10/09 09:12:24;;;;;;;8.57;6.53;;;12.50;97.00;;;;;;4992634;28;20521;-84
2022/10/09 09:15:00;;;;;;;8.50;6.87;;;12.70;97.30;;;;;;4984288;28;21068;-83
2022/10/09 09:17:32;;;;;;;10.00;6.33;;;12.70;96.90;;;;;;4980704;28;20463;-82
2022/10/09 09:20:24;;;;;;;7.43;5.97;;;12.90;97.00;;;;;;4983941;28;20464;-82
2022/10/09 09:22:52;;;;;;;13.07;5.83;;;13.10;96.90;;;;;;4984112;28;20444;-81
2022/10/09 09:25:25;;;;;;;5.80;4.87;;;13.00;96.90;;;;;;4985013;28;20485;-82
2022/10/09 09:27:56;;;;;;;9.03;5.70;;;13.30;96.70;;;;;;4981684;28;20450;-83
2022/10/09 09:30:30;;;;;;;5.03;4.47;;;13.30;96.50;;;;;;4982395;28;20460;-83
2022/10/09 09:33:13;;;;;;;5.83;5.00;;;13.50;96.40;;;;;;4982347;28;20448;-83
2022/10/09 09:36:06;;;;;;;3.80;3.50;;;13.50;96.50;;;;;;4972526;28;20519;-82
2022/10/09 09:38:34;;;;;;;6.50;4.13;;;15.40;94.10;;;;;;4962051;28;20470;-83
2022/10/09 09:41:13;;;;;;;4.03;3.23;;;16.50;91.00;;;;;;4975238;28;20451;-80
2022/10/09 09:43:40;;;;;;;4.70;3.70;;;17.90;85.90;;;;;;4987654;28;20507;-81
2022/10/09 09:46:14;;;;;;;2.97;2.37;;;18.90;81.20;;;;;;4965958;28;20508;-82
2022/10/09 09:48:44;;;;;;;4.37;2.50;;;19.90;74.50;;;;;;4967084;28;20448;-81
2022/10/09 09:51:31;;;;;;;3.50;3.20;;;19.00;74.20;;;;;;4970194;28;20445;-81
2022/10/09 09:54:20;;;;;;;4.20;2.73;;;19.50;73.20;;;;;;4968845;28;21572;-83
2022/10/09 09:56:49;;;;;;;3.67;2.70;;;19.50;73.20;;;;;;4968566;28;20495;-82
2022/10/09 09:59:41;;;;;;;6.27;2.83;;;19.20;72.90;;;;;;4970339;28;20976;-81
2022/10/09 10:02:10;;;;;;;4.43;3.03;;;18.40;75.30;;;;;;4972154;28;20444;-81
2022/10/09 10:04:46;;;;;;;3.93;3.07;;;17.70;78.40;;;;;;4972237;28;20467;-82
2022/10/09 10:07:37;;;;;;;3.40;2.97;;;17.00;81.30;;;;;;4966426;28;20463;-82
2022/10/09 10:10:19;;;;;;;3.50;3.07;;;16.60;84.20;;;;;;4966665;28;20483;-83
2022/10/09 10:12:50;;;;;;;3.30;2.70;;;16.60;85.60;;;;;;4966589;28;20500;-83
2022/10/09 10:15:20;;;;;;;9.50;4.23;;;16.40;86.00;;;;;;4966943;28;20503;-82
2022/10/09 10:17:53;;;;;;;3.10;2.53;;;16.40;86.70;;;;;;4957712;28;21001;-83
2022/10/09 10:20:20;;;;;;;3.93;2.83;;;16.30;86.90;;;;;;4965878;28;20929;-82
2022/10/09 10:22:52;;;;;;;3.70;2.80;;;16.10;88.00;;;;;;4963535;28;20515;-81
2022/10/09 10:25:23;;;;;;;4.10;3.80;;;16.20;88.70;;;;;;4965827;28;21804;-81
2022/10/09 10:27:56;;;;;;;4.17;2.67;;;16.10;88.40;;;;;;4977323;28;20468;-83
2022/10/09 10:30:23;;;;;;;4.90;4.00;;;16.10;89.50;;;;;;4968994;28;20457;-82
2022/10/09 10:32:58;;;;;;;4.30;2.80;;;16.10;89.20;;;;;;4970013;28;20547;-82
2022/10/09 10:35:55;;;;;;;2.90;2.60;;;16.00;90.00;;;;;;4989953;23;20514;-82
2022/10/09 10:38:57;;;;;;;3.40;2.60;;;16.00;90.10;;;;;;4948440;28;20455;-80
2022/10/09 10:41:55;;;;;;;3.03;2.40;;;16.10;89.50;;;;;;4969241;28;20462;-82
2022/10/09 10:45:06;;;;;;;5.17;2.63;;;16.10;89.80;;;;;;4974137;28;20471;-82
2022/10/09 10:47:59;;;;;;;2.97;2.27;;;16.00;90.20;;;;;;4953788;28;20468;-82
2022/10/09 10:50:35;;;;;;;6.07;2.80;;;15.90;90.20;;;;;;4960427;28;20436;-82
2022/10/09 10:53:39;;;;;;;4.57;2.37;;;16.30;88.60;;;;;;4954123;28;20464;-80
2022/10/09 10:57:03;;;;;;;3.40;2.40;;;16.40;87.90;;;;;;4961764;28;20493;-79
2022/10/09 11:03:38;;;;;;;5.63;2.93;;;16.30;89.80;;;;;;4961068;28;21001;-80
2022/10/09 11:06:22;;;;;;;4.33;2.60;;;16.40;89.60;;;;;;4962124;28;20661;-81
2022/10/09 11:08:52;;;;;;;3.60;2.60;;;16.20;89.50;;;;;;4952929;28;20449;-82
2022/10/09 11:11:41;;;;;;;4.40;2.80;;;16.30;89.80;;;;;;4953111;28;20974;-80
2022/10/09 11:15:02;;;;;;;4.70;1.90;;;16.20;88.70;;;;;;4951356;28;20500;-83
2022/10/09 11:17:35;;;;;;;3.10;2.30;;;16.40;88.70;;;;;;4914313;29;20453;-81
2022/10/09 11:20:17;;;;;;;2.57;2.33;;;16.60;87.20;;;;;;4968049;28;20500;-84
2022/10/09 11:22:49;;;;;;;3.27;1.90;;;16.50;87.40;;;;;;4960276;28;20460;-83
2022/10/09 11:25:27;;;;;;;2.80;2.23;;;16.80;87.20;;;;;;4947452;28;20501;-83
2022/10/09 11:28:17;;;;;;;2.87;2.30;;;17.00;84.80;;;;;;4956599;28;20998;-82
2022/10/09 11:31:09;;;;;;;4.30;2.10;;;17.10;84.70;;;;;;4948964;28;20551;-84
2022/10/09 11:33:49;;;;;;;2.47;1.90;;;17.00;83.40;;;;;;4949453;28;20445;-83
2022/10/09 11:36:38;;;;;;;2.60;2.40;;;17.20;84.00;;;;;;4948488;28;20493;-81
2022/10/09 11:39:15;;;;;;;5.67;2.43;;;17.20;82.60;;;;;;4943023;28;20456;-82
2022/10/09 11:41:45;;;;;;;2.43;2.23;;;17.30;80.60;;;;;;4943670;28;20460;-82
2022/10/09 11:44:38;;;;;;;2.77;1.77;;;17.20;80.80;;;;;;4951030;28;20472;-82
2022/10/09 11:47:37;;;;;;;3.10;1.70;;;17.10;81.00;;;;;;4950438;28;20456;-82
2022/10/09 11:50:32;;;;;;;4.23;1.90;;;17.30;80.30;;;;;;4957135;28;20463;-81
2022/10/09 11:53:10;;;;;;;1.60;1.50;;;17.40;79.50;;;;;;4971950;28;20830;-82
2022/10/09 11:55:36;;;;;;;3.43;2.20;;;17.40;79.70;;;;;;4977656;28;20474;-80
2022/10/09 11:58:08;;;;;;;4.30;1.80;;;17.40;79.20;;;;;;4977986;28;20468;-81
2022/10/09 12:00:36;;;;;;;2.83;1.63;;;17.40;78.80;;;;;;4963545;28;20457;-82
2022/10/09 12:03:07;;;;;;;5.63;1.97;;;17.60;76.90;;;;;;4961831;28;20455;-82
2022/10/09 12:05:46;;;;;;;1.77;1.67;;;17.70;73.00;;;;;;4960961;28;20476;-82
2022/10/09 12:08:25;;;;;;;1.57;1.47;;;17.60;71.90;;;;;;4967297;28;20452;-80
2022/10/09 12:10:57;;;;;;;1.43;1.20;;;17.80;70.20;;;;;;4974692;28;20433;-81
2022/10/09 12:13:41;;;;;;;3.60;1.87;;;17.80;70.30;;;;;;4957818;28;20993;-82
2022/10/09 12:16:27;;;;;;;3.43;1.50;;;18.30;65.90;;;;;;4956715;28;20576;-82
2022/10/09 12:18:59;;;;;;;1.60;1.23;;;18.30;63.10;;;;;;4971557;28;20466;-84
2022/10/09 12:21:34;;;;;;;1.97;1.30;;;18.40;60.80;;;;;;4952697;28;20495;-82
2022/10/09 12:24:01;;;;;;;1.77;1.10;;;18.40;61.30;;;;;;4949706;28;20540;-82
2022/10/09 12:26:28;;;;;;;1.83;1.30;;;18.40;61.20;;;;;;4944235;28;20485;-81
2022/10/09 12:28:59;;;;;;;1.90;1.20;;;18.80;60.90;;;;;;4944776;28;20520;-82
2022/10/09 12:31:37;;;;;;;4.00;1.20;;;19.40;58.10;;;;;;4942633;28;20906;-82
2022/10/09 12:34:18;;;;;;;2.63;1.90;;;20.10;55.40;;;;;;4946320;28;20468;-83
2022/10/09 12:36:44;;;;;;;1.50;1.00;;;19.80;55.60;;;;;;4941163;28;20497;-82
2022/10/09 12:39:32;;;;;;;2.07;1.17;;;20.20;55.40;;;;;;4947168;28;20453;-83
2022/10/09 12:41:59;;;;;;;1.57;1.23;;;20.70;55.10;;;;;;4936399;28;20468;-82
2022/10/09 12:44:31;;;;;;;1.20;1.10;;;20.80;54.60;;;;;;4946948;28;20484;-82
2022/10/09 12:47:07;;;;;;;1.50;1.03;;;20.50;54.50;;;;;;4950919;28;20463;-81
2022/10/09 12:49:34;;;;;;;2.17;1.20;;;20.50;53.80;;;;;;4952167;28;20527;-82
2022/10/09 12:52:01;;;;;;;3.90;1.50;;;20.10;54.30;;;;;;4955983;28;20444;-82
2022/10/09 12:54:30;;;;;;;0.90;0.90;;;20.60;53.60;;;;;;4956883;28;20456;-82
2022/10/09 12:56:58;;;;;;;1.00;0.90;;;21.10;52.20;;;;;;4951426;28;20509;-79
2022/10/09 12:59:26;;;;;;;2.23;1.20;;;21.10;51.80;;;;;;4950029;28;21211;-80
2022/10/09 13:01:57;;;;;;;2.30;1.50;;;20.60;52.10;;;;;;4952150;28;20456;-82
2022/10/09 13:04:32;;;;;;;2.57;1.30;;;20.80;51.70;;;;;;4968827;28;20527;-80
2022/10/09 13:07:04;;;;;;;1.40;1.27;;;20.20;52.20;;;;;;4952794;28;20491;-81
2022/10/09 13:09:37;;;;;;;2.93;2.03;;;21.00;51.60;;;;;;4949672;28;20461;-80
2022/10/09 13:12:08;;;;;;;1.37;1.00;;;21.00;51.00;;;;;;4947331;28;20806;-82
2022/10/09 13:14:54;;;;;;;3.60;1.20;;;21.10;50.80;;;;;;4947724;28;20472;-82
2022/10/09 13:17:34;;;;;;;1.20;1.10;;;21.50;50.90;;;;;;4946152;28;20488;-82
2022/10/09 13:20:02;;;;;;;2.60;1.47;;;21.50;51.80;;;;;;4939161;28;20448;-81